DW1347 Weather Reports


Display with metric or nautical units.
time (UTC)temp
F
wind
direction
speed
MPH
gust
MPH
rain 1hr
in
rain 24hr
in
rain mn
in
humidity
%
barometer
mb
20240303065946 38 237 2.0 3.0 0.00 0.00 0.00 62 1002.6
20240303065445 39 277 6.0 8.0 0.00 0.00 0.00 57 1002.7
20240303064943 39 300 3.0 3.0 0.00 0.00 0.00 53 1003.1
20240303064443 40 215 3.0 5.0 0.00 0.00 0.00 52 1002.7
20240303063942 39 203 5.0 7.0 0.00 0.00 0.00 53 1002.6
20240303063441 40 148 5.0 7.0 0.00 0.00 0.00 52 1002.5
20240303062939 40 247 6.0 9.0 0.00 0.00 0.00 52 1002.7
20240303062439 41 125 2.0 2.0 0.00 0.00 0.00 49 1002.5
20240303061937 40 156 8.0 10.0 0.00 0.00 0.00 47 1002.4
20240303061436 41 180 4.0 7.0 0.00 0.00 0.00 49 1002.2
20240303060935 41 175 3.0 5.0 0.00 0.00 0.00 48 1002.4
20240303060434 41 109 1.0 2.0 0.00 0.00 0.00 48 1002.5
20240303055933 40 239 5.0 7.0 0.00 0.00 0.00 50 1002.2
20240303055432 40 167 1.0 2.0 0.00 0.00 0.00 51 1002.7
20240303054931 40 216 3.0 5.0 0.00 0.00 0.00 51 1002.9
20240303054430 40 216 3.0 5.0 0.00 0.00 0.00 52 1002.7
20240303053930 40 225 1.0 1.0 0.00 0.00 0.00 53 1003.1
20240303053431 40 197 5.0 7.0 0.00 0.00 0.00 52 1003.1
20240303052930 41 221 4.0 7.0 0.00 0.00 0.00 50 1003.5
20240303052429 41 149 5.0 6.0 0.00 0.00 0.00 47 1003.0
20240303051928 41 186 4.0 6.0 0.00 0.00 0.00 46 1003.1
20240303051427 41 147 3.0 5.0 0.00 0.00 0.00 47 1002.9
20240303050926 41 117 5.0 7.0 0.00 0.00 0.00 48 1003.0
20240303050425 41 192 4.0 6.0 0.00 0.00 0.00 49 1002.7
20240303045923 41 180 2.0 2.0 0.00 0.00 0.00 49 1003.3
20240303045422 41 242 3.0 5.0 0.00 0.00 0.00 47 1003.5
20240303044922 41 174 5.0 9.0 0.00 0.00 0.00 48 1003.4
20240303044421 41 214 2.0 2.0 0.00 0.00 0.00 48 1003.3
20240303043921 42 221 2.0 5.0 0.00 0.00 0.00 47 1003.3
20240303043421 41 159 3.0 3.0 0.00 0.00 0.00 48 1003.1
20240303042920 41 200 3.0 3.0 0.00 0.00 0.00 48 1002.9
20240303042418 41 238 1.0 1.0 0.00 0.00 0.00 48 1003.1
20240303041918 41 223 1.0 2.0 0.00 0.00 0.00 46 1003.6
20240303041416 42 211 1.0 2.0 0.00 0.00 0.00 49 1003.3
20240303040914 42 196 5.0 6.0 0.00 0.00 0.00 43 1003.5
20240303040412 43 94 1.0 2.0 0.00 0.00 0.00 43 1003.9
20240303035911 43 193 3.0 3.0 0.00 0.00 0.00 41 1003.5
20240303035410 43 349 3.0 5.0 0.00 0.00 0.00 41 1003.5
20240303034908 43 209 1.0 2.0 0.00 0.00 0.00 41 1003.6
20240303034407 43 188 3.0 3.0 0.00 0.00 0.00 39 1003.5
20240303033906 43 156 3.0 3.0 0.00 0.00 0.00 40 1003.6
20240303033406 43 170 1.0 2.0 0.00 0.00 0.00 39 1003.8
20240303032906 44 220 8.0 10.0 0.00 0.00 0.00 39 1003.6
20240303032404 44 81 5.0 7.0 0.00 0.00 0.00 39 1003.4
20240303031904 43 225 4.0 5.0 0.00 0.00 0.00 39 1003.8
20240303031403 44 89 3.0 3.0 0.00 0.00 0.00 38 1003.6
20240303030900 43 116 2.0 2.0 0.00 0.00 0.00 38 1003.6
20240303030359 43 185 1.0 2.0 0.00 0.00 0.00 36 1004.0
20240303025858 43 226 1.0 1.0 0.00 0.00 0.00 37 1004.1
20240303025357 43 266 2.0 3.0 0.00 0.00 0.00 38 1003.8
20240303024856 44 199 1.0 1.0 0.00 0.00 0.00 35 1003.9
20240303024355 44 216 2.0 2.0 0.00 0.00 0.00 34 1003.8
20240303023854 44 226 0.0 1.0 0.00 0.00 0.00 34 1004.0
20240303023353 44 210 1.0 1.0 0.00 0.00 0.00 35 1003.8
20240303022853 44 193 1.0 1.0 0.00 0.00 0.00 35 1004.0
20240303022351 44 240 3.0 3.0 0.00 0.00 0.00 33 1004.1
20240303021851 45 237 3.0 5.0 0.00 0.00 0.00 33 1004.3
20240303021350 44 188 4.0 5.0 0.00 0.00 0.00 33 1004.5
20240303020849 44 212 2.0 2.0 0.00 0.00 0.00 37 1004.4
20240303020347 44 208 3.0 3.0 0.00 0.00 0.00 34 1004.6
20240303015847 44 182 1.0 1.0 0.00 0.00 0.00 33 1004.8
20240303015346 44 162 3.0 6.0 0.00 0.00 0.00 33 1004.6
20240303014845 45 234 3.0 5.0 0.00 0.00 0.00 33 1004.4
20240303014344 45 235 5.0 8.0 0.00 0.00 0.00 32 1004.6
20240303013843 44 169 3.0 3.0 0.00 0.00 0.00 33 1005.0
20240303013342 44 159 3.0 5.0 0.00 0.00 0.00 31 1004.9
20240303012842 44 232 3.0 3.0 0.00 0.00 0.00 31 1005.0
20240303012340 45 204 1.0 2.0 0.00 0.00 0.00 30 1005.0
20240303011839 45 145 5.0 6.0 0.00 0.00 0.00 29 1004.9
20240303011337 45 225 1.0 1.0 0.00 0.00 0.00 30 1004.5
20240303010836 45 199 1.0 2.0 0.00 0.00 0.00 28 1004.8
20240303010335 46 170 3.0 3.0 0.00 0.00 0.00 29 1004.9
20240303005834 46 199 1.0 3.0 0.00 0.00 0.00 29 1004.6
20240303005333 46 205 3.0 5.0 0.00 0.00 0.00 26 1004.8
20240303004833 46 166 5.0 8.0 0.00 0.00 0.00 28 1004.5
20240303004331 46 206 3.0 5.0 0.00 0.00 0.00 27 1004.6
20240303003830 47 145 1.0 1.0 0.00 0.00 0.00 26 1004.6
20240303003330 47 214 0.0 1.0 0.00 0.00 0.00 26 1004.6
20240303002829 47 160 4.0 5.0 0.00 0.00 0.00 25 1004.5
20240303002328 47 217 1.0 2.0 0.00 0.00 0.00 26 1004.8
20240303001826 48 192 4.0 5.0 0.00 0.00 0.00 24 1004.6
20240303001324 48 171 4.0 6.0 0.00 0.00 0.00 24 1005.0
20240303000822 49 233 1.0 2.0 0.00 0.00 0.00 23 1004.9
20240303000322 49 199 2.0 3.0 0.00 0.00 0.00 24 1004.8
20240302235820 49 120 2.0 5.0 0.00 0.00 0.00 23 1005.1
20240302235319 50 153 3.0 5.0 0.00 0.00 0.00 26 1005.1
20240302234817 50 247 3.0 6.0 0.00 0.00 0.00 22 1005.0
20240302234316 50 312 2.0 3.0 0.00 0.00 0.00 22 1005.4
20240302233815 50 277 1.0 2.0 0.00 0.00 0.00 22 1005.5
20240302233313 50 315 4.0 5.0 0.00 0.00 0.00 22 1005.3
20240302232813 50 214 11.0 14.0 0.00 0.00 0.00 21 1005.7
20240302232312 51 271 5.0 7.0 0.00 0.00 0.00 22 1005.5
20240302231810 51 151 5.0 13.0 0.00 0.00 0.00 23 1005.8
20240302231308 51 229 4.0 5.0 0.00 0.00 0.00 22 1005.8
20240302230807 51 151 9.0 11.0 0.00 0.00 0.00 21 1005.7
20240302230307 52 171 2.0 2.0 0.00 0.00 0.00 20 1005.8
20240302225805 53 196 4.0 6.0 0.00 0.00 0.00 22 1005.9
20240302225305 52 170 3.0 5.0 0.00 0.00 0.00 21 1006.0
20240302224803 52 62 5.0 6.0 0.00 0.00 0.00 21 1005.9
20240302224301 53 204 9.0 11.0 0.00 0.00 0.00 21 1005.8
20240302223759 53 353 11.0 14.0 0.00 0.00 0.00 20 1005.9
20240302223258 53 130 3.0 5.0 0.00 0.00 0.00 21 1005.8
20240302222757 53 176 6.0 8.0 0.00 0.00 0.00 21 1005.9
20240302222255 53 144 5.0 7.0 0.00 0.00 0.00 21 1005.9
20240302221754 53 119 8.0 14.0 0.00 0.00 0.00 21 1006.2
20240302221252 53 227 3.0 3.0 0.00 0.00 0.00 22 1006.2
20240302220751 53 232 5.0 7.0 0.00 0.00 0.00 21 1006.5
20240302220250 53 223 3.0 3.0 0.00 0.00 0.00 21 1006.4
20240302215750 53 257 7.0 8.0 0.00 0.00 0.00 21 1006.3
20240302215249 54 228 6.0 9.0 0.00 0.00 0.00 20 1005.8
20240302214747 53 173 7.0 9.0 0.00 0.00 0.00 20 1006.5
20240302214247 53 187 3.0 3.0 0.00 0.00 0.00 21 1006.3
20240302213744 54 148 7.0 9.0 0.00 0.00 0.00 20 1006.5
20240302213243 53 130 3.0 3.0 0.00 0.00 0.00 21 1006.5
20240302212742 54 190 6.0 7.0 0.00 0.00 0.00 20 1006.5
20240302212240 54 249 5.0 8.0 0.00 0.00 0.00 20 1006.5
20240302211740 53 49 3.0 3.0 0.00 0.00 0.00 21 1006.5
20240302211239 55 153 13.0 17.0 0.00 0.00 0.00 19 1006.9
20240302210737 54 222 1.0 2.0 0.00 0.00 0.00 21 1006.9
20240302210236 55 170 2.0 3.0 0.00 0.00 0.00 20 1006.7
20240302205736 54 204 4.0 6.0 0.00 0.00 0.00 20 1006.8
20240302205235 54 331 1.0 2.0 0.00 0.00 0.00 20 1006.8
20240302204733 54 34 2.0 2.0 0.00 0.00 0.00 20 1007.0
20240302204232 54 230 3.0 6.0 0.00 0.00 0.00 21 1006.9
20240302203730 54 169 3.0 3.0 0.00 0.00 0.00 22 1007.4
20240302203229 54 153 6.0 7.0 0.00 0.00 0.00 19 1007.5
20240302202728 53 215 4.0 6.0 0.00 0.00 0.00 20 1007.7
20240302202227 54 103 3.0 6.0 0.00 0.00 0.00 20 1007.4
20240302201724 53 195 3.0 6.0 0.00 0.00 0.00 19 1007.5
20240302201223 53 195 7.0 8.0 0.00 0.00 0.00 20 1007.7
20240302200720 54 343 6.0 11.0 0.00 0.00 0.00 19 1008.1
20240302200220 54 182 8.0 9.0 0.00 0.00 0.00 19 1007.8
20240302195718 53 208 2.0 2.0 0.00 0.00 0.00 21 1008.1
20240302195217 53 207 4.0 10.0 0.00 0.00 0.00 19 1008.1
20240302194716 53 233 5.0 7.0 0.00 0.00 0.00 19 1008.4
20240302194214 53 244 6.0 7.0 0.00 0.00 0.00 20 1008.6
20240302193714 53 117 4.0 7.0 0.00 0.00 0.00 20 1008.4
20240302193213 53 169 8.0 10.0 0.00 0.00 0.00 20 1008.9
20240302192711 54 210 3.0 3.0 0.00 0.00 0.00 19 1009.1
20240302192209 54 305 3.0 5.0 0.00 0.00 0.00 21 1009.2
20240302191709 53 229 4.0 6.0 0.00 0.00 0.00 19 1009.3
20240302191206 54 223 5.0 8.0 0.00 0.00 0.00 19 1009.1
20240302190704 53 145 4.0 5.0 0.00 0.00 0.00 18 1009.2
20240302190205 53 238 3.0 5.0 0.00 0.00 0.00 21 1009.7
20240302185703 53 201 7.0 9.0 0.00 0.00 0.00 19 1010.1
20240302185202 53 186 3.0 3.0 0.00 0.00 0.00 20 1009.8
20240302184701 53 137 2.0 3.0 0.00 0.00 0.00 20 1009.8
20240302184200 53 211 11.0 16.0 0.00 0.00 0.00 19 1009.9
20240302183659 53 126 2.0 2.0 0.00 0.00 0.00 20 1009.9
20240302183159 54 236 1.0 2.0 0.00 0.00 0.00 18 1010.1
20240302182658 54 189 2.0 2.0 0.00 0.00 0.00 18 1010.2
20240302182158 54 192 3.0 5.0 0.00 0.00 0.00 18 1010.3
20240302181656 55 301 4.0 5.0 0.00 0.00 0.00 17 1010.3
20240302181155 55 310 4.0 5.0 0.00 0.00 0.00 20 1010.3
20240302180655 55 169 5.0 6.0 0.00 0.00 0.00 18 1010.3
20240302180153 53 222 2.0 2.0 0.00 0.00 0.00 21 1010.7
20240302175653 54 151 1.0 2.0 0.00 0.00 0.00 21 1010.5
20240302175152 53 270 4.0 6.0 0.00 0.00 0.00 19 1010.6
20240302174650 54 251 2.0 5.0 0.00 0.00 0.00 19 1010.7
20240302174149 53 211 3.0 3.0 0.00 0.00 0.00 19 1011.0
20240302173648 53 233 1.0 1.0 0.00 0.00 0.00 19 1011.0
20240302173147 53 264 2.0 3.0 0.00 0.00 0.00 21 1010.8
20240302172647 53 134 0.0 1.0 0.00 0.00 0.00 21 1010.8
20240302172147 54 82 1.0 2.0 0.00 0.00 0.00 19 1010.8
20240302171647 53 165 0.0 0.0 0.00 0.00 0.00 20 1010.8
20240302171147 52 206 8.0 10.0 0.00 0.00 0.00 18 1010.8
20240302170646 52 259 2.0 3.0 0.00 0.00 0.00 18 1011.2
20240302170146 52 319 5.0 6.0 0.00 0.00 0.00 19 1011.2
20240302165645 51 195 10.0 15.0 0.00 0.00 0.00 19 1011.1
20240302165144 51 274 7.0 9.0 0.00 0.00 0.00 19 1011.6
20240302164644 51 293 9.0 11.0 0.00 0.00 0.00 19 1011.8
20240302164143 51 295 8.0 10.0 0.00 0.00 0.00 19 1011.6
20240302163641 50 329 7.0 10.0 0.00 0.00 0.00 19 1011.6
20240302163140 51 308 3.0 5.0 0.00 0.00 0.00 19 1011.7
20240302162639 50 209 6.0 8.0 0.00 0.00 0.00 18 1011.6
20240302162138 50 235 3.0 3.0 0.00 0.00 0.00 20 1011.7
20240302161637 50 310 4.0 7.0 0.00 0.00 0.00 20 1011.6
20240302161137 50 186 1.0 1.0 0.00 0.00 0.00 20 1011.7
20240302160637 50 228 2.0 3.0 0.00 0.00 0.00 22 1011.8
20240302160137 49 157 2.0 3.0 0.00 0.00 0.00 22 1012.0
20240302155636 49 223 1.0 1.0 0.00 0.00 0.00 22 1011.8
20240302155135 49 233 3.0 3.0 0.00 0.00 0.00 22 1011.7
20240302154635 49 137 5.0 8.0 0.00 0.00 0.00 21 1012.0
20240302154133 48 194 0.0 1.0 0.00 0.00 0.00 23 1012.0
20240302153633 48 91 3.0 3.0 0.00 0.00 0.00 24 1012.0
20240302153132 47 249 0.0 1.0 0.00 0.00 0.00 23 1012.0
20240302152631 46 175 2.0 2.0 0.00 0.00 0.00 25 1012.1
20240302152130 46 238 7.0 7.0 0.00 0.00 0.00 22 1012.2
20240302151629 45 186 3.0 5.0 0.00 0.00 0.00 25 1012.2
20240302151128 44 186 2.0 5.0 0.00 0.00 0.00 27 1012.2
20240302150628 43 182 2.0 2.0 0.00 0.00 0.00 29 1012.4
20240302150126 41 179 0.0 1.0 0.00 0.00 0.00 30 1012.1
20240302145625 38 185 0.0 1.0 0.00 0.00 0.00 39 1012.5
20240302145124 37 142 1.0 1.0 0.00 0.00 0.00 41 1012.6
20240302144622 35 194 0.0 1.0 0.00 0.00 0.00 35 1012.6
20240302144122 32 184 1.0 1.0 0.00 0.00 0.00 51 1012.5
20240302143620 30 177 2.0 2.0 0.00 0.00 0.00 53 1012.9
20240302143118 28 157 2.0 2.0 0.00 0.00 0.00 58 1012.9
20240302142618 28 196 1.0 1.0 0.00 0.00 0.00 58 1012.6
20240302142118 28 197 1.0 1.0 0.00 0.00 0.00 59 1012.7
20240302141617 29 231 0.0 0.0 0.00 0.00 0.00 59 1012.6
20240302141116 30 201 1.0 1.0 0.00 0.00 0.00 56 1012.4
20240302140616 33 224 0.0 0.0 0.00 0.00 0.00 54 1012.6
20240302140116 33 207 1.0 1.0 0.00 0.00 0.00 42 1012.7
20240302135614 33 221 0.0 0.0 0.00 0.00 0.00 45 1012.9
20240302135113 32 210 1.0 1.0 0.00 0.00 0.00 54 1012.9
20240302134612 33 223 0.0 0.0 0.00 0.00 0.00 45 1012.6
20240302134110 35 216 0.0 0.0 0.00 0.00 0.00 44 1012.7
20240302133609 37 194 0.0 1.0 0.00 0.00 0.00 37 1012.7
20240302133108 38 183 2.0 2.0 0.00 0.00 0.00 33 1013.0
20240302132608 38 178 1.0 2.0 0.00 0.00 0.00 36 1012.7
20240302132108 38 201 1.0 2.0 0.00 0.00 0.00 38 1012.9
20240302131608 39 156 2.0 2.0 0.00 0.00 0.00 35 1013.0
20240302131107 39 126 4.0 5.0 0.00 0.00 0.00 36 1012.9
20240302130607 38 145 5.0 7.0 0.00 0.00 0.00 33 1012.6
20240302130105 38 179 3.0 6.0 0.00 0.00 0.00 34 1012.9
20240302125603 37 215 1.0 1.0 0.00 0.00 0.00 40 1013.0
20240302125103 38 223 2.0 3.0 0.00 0.00 0.00 34 1013.1
20240302124603 34 234 2.0 2.0 0.00 0.00 0.00 40 1013.1
20240302124102 34 195 2.0 2.0 0.00 0.00 0.00 40 1013.1
20240302123601 35 233 1.0 2.0 0.00 0.00 0.00 40 1013.0
20240302123100 35 230 1.0 1.0 0.00 0.00 0.00 40 1013.1
20240302122559 37 239 2.0 2.0 0.00 0.00 0.00 40 1013.1
20240302122057 37 231 1.0 1.0 0.00 0.00 0.00 38 1013.1
20240302121556 36 225 0.0 0.0 0.00 0.00 0.00 39 1013.1
20240302121055 36 147 3.0 3.0 0.00 0.00 0.00 42 1013.0
20240302120554 37 213 0.0 1.0 0.00 0.00 0.00 38 1013.0
20240302120053 37 201 2.0 2.0 0.00 0.00 0.00 37 1013.1
20240302115551 37 222 2.0 2.0 0.00 0.00 0.00 37 1013.2
20240302115051 35 225 0.0 0.0 0.00 0.00 0.00 42 1013.4
20240302114550 34 161 3.0 3.0 0.00 0.00 0.00 39 1013.1
20240302114048 34 193 2.0 2.0 0.00 0.00 0.00 43 1013.1
20240302113547 35 146 3.0 3.0 0.00 0.00 0.00 38 1013.1
20240302113045 33 176 3.0 3.0 0.00 0.00 0.00 45 1013.4
20240302112543 33 232 2.0 2.0 0.00 0.00 0.00 43 1013.4
20240302112042 33 213 0.0 0.0 0.00 0.00 0.00 46 1013.4
20240302111540 35 184 2.0 2.0 0.00 0.00 0.00 39 1013.4
20240302111039 34 194 1.0 1.0 0.00 0.00 0.00 43 1013.4
20240302110538 34 241 2.0 5.0 0.00 0.00 0.00 41 1013.5
20240302110037 35 216 0.0 0.0 0.00 0.00 0.00 39 1013.4
20240302105536 34 201 1.0 1.0 0.00 0.00 0.00 42 1013.6
20240302105035 34 184 1.0 1.0 0.00 0.00 0.00 40 1013.5
20240302104533 31 197 1.0 2.0 0.00 0.00 0.00 45 1013.4
20240302104032 31 174 2.0 2.0 0.00 0.00 0.00 48 1013.4
20240302103531 32 215 1.0 1.0 0.00 0.00 0.00 48 1013.6
20240302103031 32 168 1.0 2.0 0.00 0.00 0.00 43 1013.4
20240302102529 32 226 1.0 2.0 0.00 0.00 0.00 47 1013.4
20240302102027 34 189 3.0 3.0 0.00 0.00 0.00 45 1013.5
20240302101525 30 218 0.0 1.0 0.00 0.00 0.00 52 1013.9
20240302101025 30 232 1.0 1.0 0.00 0.00 0.00 52 1013.5
20240302100523 30 205 1.0 1.0 0.00 0.00 0.00 52 1013.9
20240302100022 30 228 0.0 0.0 0.00 0.00 0.00 51 1014.0
20240302095521 30 227 0.0 0.0 0.00 0.00 0.00 52 1013.9
20240302095019 31 220 0.0 0.0 0.00 0.00 0.00 50 1014.0
20240302094517 32 224 1.0 2.0 0.00 0.00 0.00 47 1013.9
20240302094016 32 172 1.0 2.0 0.00 0.00 0.00 42 1013.7
20240302093514 33 197 1.0 2.0 0.00 0.00 0.00 48 1014.0
20240302093014 34 210 1.0 1.0 0.00 0.00 0.00 44 1014.2
20240302092512 34 196 1.0 1.0 0.00 0.00 0.00 39 1014.4
20240302092010 36 231 0.0 0.0 0.00 0.00 0.00 44 1014.2
20240302091509 37 228 0.0 0.0 0.00 0.00 0.00 40 1014.5
20240302091006 39 180 2.0 2.0 0.00 0.00 0.00 35 1014.5
20240302090505 39 207 0.0 0.0 0.00 0.00 0.00 35 1014.5
20240302090003 39 188 3.0 3.0 0.00 0.00 0.00 36 1014.8
20240302085501 40 234 2.0 3.0 0.00 0.00 0.00 33 1014.9
20240302085000 40 192 2.0 2.0 0.00 0.00 0.00 34 1014.9
20240302084459 40 166 3.0 3.0 0.00 0.00 0.00 36 1014.8
20240302083956 41 234 2.0 2.0 0.00 0.00 0.00 32 1014.8
20240302083454 41 263 4.0 7.0 0.00 0.00 0.00 33 1014.8
20240302082953 41 119 3.0 6.0 0.00 0.00 0.00 33 1014.8
20240302082453 40 271 5.0 6.0 0.00 0.00 0.00 34 1015.0
20240302081952 40 335 7.0 10.0 0.00 0.00 0.00 33 1015.3
20240302081451 41 237 2.0 3.0 0.00 0.00 0.00 36 1015.0
20240302080950 41 238 3.0 3.0 0.00 0.00 0.00 34 1014.8
20240302080449 41 250 5.0 6.0 0.00 0.00 0.00 35 1014.8
20240302075947 41 272 4.0 5.0 0.00 0.00 0.00 34 1015.3
20240302075446 40 232 4.0 5.0 0.00 0.00 0.00 35 1015.1
20240302074945 40 330 2.0 2.0 0.00 0.00 0.00 35 1015.4
20240302074444 41 229 1.0 2.0 0.00 0.00 0.00 34 1015.3
20240302073943 41 354 4.0 5.0 0.00 0.00 0.00 34 1015.0
20240302073440 42 252 5.0 6.0 0.00 0.00 0.00 33 1015.3
20240302072938 41 274 2.0 3.0 0.00 0.00 0.00 34 1015.6
20240302072438 42 280 4.0 5.0 0.00 0.00 0.00 34 1015.1
20240302071937 41 347 9.0 10.0 0.00 0.00 0.00 33 1015.4
20240302071435 42 312 9.0 11.0 0.00 0.00 0.00 33 1015.1
20240302070935 42 266 3.0 5.0 0.00 0.00 0.00 33 1015.3
20240302070435 42 264 5.0 6.0 0.00 0.00 0.00 33 1015.3